createdAt,value
2023-05-05T00:01:06.811Z,15.00
2023-05-05T00:03:09.480Z,14.95
2023-05-05T00:05:14.678Z,14.94
2023-05-05T00:07:19.652Z,14.95
2023-05-05T00:09:25.108Z,14.96
2023-05-05T00:11:30.057Z,14.98
2023-05-05T00:13:35.105Z,14.95
2023-05-05T00:15:40.480Z,14.93
2023-05-05T00:17:48.098Z,14.92
2023-05-05T00:19:52.987Z,14.89
2023-05-05T00:21:57.932Z,14.85
2023-05-05T00:24:02.949Z,14.84
2023-05-05T00:26:07.901Z,14.81
2023-05-05T00:28:14.306Z,14.80
2023-05-05T00:30:19.259Z,14.80
2023-05-05T00:32:24.188Z,14.66
2023-05-05T00:34:32.050Z,14.59
2023-05-05T00:36:38.236Z,14.58
2023-05-05T00:38:43.527Z,14.56
2023-05-05T00:40:48.412Z,14.55
2023-05-05T00:42:53.616Z,14.52
2023-05-05T00:44:58.867Z,14.49
2023-05-05T00:47:03.645Z,14.46
2023-05-05T00:49:12.487Z,14.47
2023-05-05T00:51:22.008Z,14.48
2023-05-05T00:53:29.668Z,14.47
2023-05-05T00:55:36.796Z,14.41
2023-05-05T00:57:41.864Z,14.36
2023-05-05T00:59:49.433Z,14.30
2023-05-05T01:01:54.444Z,14.26
2023-05-05T01:03:59.518Z,14.20
2023-05-05T01:06:17.344Z,14.20
2023-05-05T01:08:39.261Z,14.19
2023-05-05T01:10:47.979Z,14.18
2023-05-05T01:13:00.328Z,14.13
2023-05-05T01:15:18.236Z,14.09
2023-05-05T01:17:31.817Z,14.01
2023-05-05T01:19:59.600Z,13.94
2023-05-05T01:22:10.131Z,13.92
2023-05-05T01:24:56.136Z,13.88
2023-05-05T01:27:30.289Z,13.86
2023-05-05T01:29:46.335Z,13.85
2023-05-05T01:31:57.338Z,13.80
2023-05-05T01:34:07.020Z,13.79
2023-05-05T01:36:22.914Z,13.77
2023-05-05T01:38:35.420Z,13.78
2023-05-05T01:40:46.701Z,13.83
2023-05-05T01:42:53.490Z,13.87
2023-05-05T01:45:00.552Z,13.89
2023-05-05T01:47:09.572Z,13.91
2023-05-05T01:49:15.396Z,13.85
2023-05-05T01:51:22.278Z,13.79
2023-05-05T01:53:29.322Z,13.79
2023-05-05T01:55:36.573Z,13.77
2023-05-05T01:57:43.269Z,13.77
2023-05-05T01:59:48.168Z,13.73
2023-05-05T02:01:53.744Z,13.71
2023-05-05T02:04:02.510Z,13.75
2023-05-05T02:06:10.145Z,13.77
2023-05-05T02:08:15.797Z,13.63
2023-05-05T02:10:21.188Z,13.58
2023-05-05T02:12:26.373Z,13.53
2023-05-05T02:14:32.387Z,13.51
2023-05-05T02:16:41.459Z,13.48
2023-05-05T02:18:48.922Z,13.44
2023-05-05T02:20:56.761Z,13.43
2023-05-05T02:23:02.268Z,13.42
2023-05-05T02:25:08.433Z,13.41
2023-05-05T02:27:14.783Z,13.47
2023-05-05T02:29:22.232Z,13.52
2023-05-05T02:31:30.626Z,13.56
2023-05-05T02:33:36.868Z,13.55
2023-05-05T02:35:44.183Z,13.58
2023-05-05T02:38:02.933Z,13.64
2023-05-05T02:40:14.129Z,13.61
2023-05-05T02:42:22.731Z,13.65
2023-05-05T02:44:32.026Z,13.69
2023-05-05T02:46:37.907Z,13.72
2023-05-05T02:48:46.139Z,13.77
2023-05-05T02:50:51.299Z,13.81
2023-05-05T02:53:10.872Z,13.87
2023-05-05T02:55:16.746Z,13.85
2023-05-05T02:57:23.713Z,13.82
2023-05-05T02:59:51.878Z,13.82
2023-05-05T03:02:13.030Z,13.78
2023-05-05T03:04:23.697Z,13.76
2023-05-05T03:06:33.258Z,13.74
2023-05-05T03:08:52.957Z,13.77
2023-05-05T03:11:03.359Z,13.73
2023-05-05T03:13:12.368Z,13.72
2023-05-05T03:15:22.798Z,13.71
2023-05-05T03:17:31.042Z,13.69
2023-05-05T03:19:54.122Z,13.69
2023-05-05T03:21:59.651Z,13.59
2023-05-05T03:24:15.893Z,13.57
2023-05-05T03:26:23.363Z,13.50
2023-05-05T03:28:28.396Z,13.49
2023-05-05T03:30:36.158Z,13.47
2023-05-05T03:32:41.163Z,13.44
2023-05-05T03:34:46.170Z,13.41
2023-05-05T03:36:51.032Z,13.39
2023-05-05T03:38:56.004Z,13.38
2023-05-05T03:41:03.795Z,13.30
2023-05-05T03:43:09.868Z,13.21
2023-05-05T03:45:15.904Z,13.21
2023-05-05T03:47:20.667Z,13.15
2023-05-05T03:49:25.697Z,13.13
2023-05-05T03:51:31.825Z,13.09
2023-05-05T03:53:40.226Z,13.12
2023-05-05T03:55:46.173Z,13.16
2023-05-05T03:57:53.412Z,13.16
2023-05-05T03:59:58.397Z,13.18
2023-05-05T04:02:04.674Z,13.19
2023-05-05T04:04:09.830Z,13.23
2023-05-05T04:06:14.887Z,13.27
2023-05-05T04:08:19.735Z,13.33
2023-05-05T04:10:27.013Z,13.40
2023-05-05T04:12:32.602Z,13.50
2023-05-05T04:14:40.200Z,13.61
2023-05-05T04:16:45.832Z,13.63
2023-05-05T04:18:50.704Z,13.62
2023-05-05T04:20:55.724Z,13.64
2023-05-05T04:23:01.101Z,13.66
2023-05-05T04:25:06.091Z,13.69
2023-05-05T04:27:11.413Z,13.66
2023-05-05T04:29:17.213Z,13.62
2023-05-05T04:31:24.818Z,13.61
2023-05-05T04:33:29.772Z,13.59
2023-05-05T04:35:34.709Z,13.61
2023-05-05T04:37:41.900Z,13.58
2023-05-05T04:39:47.202Z,13.57
2023-05-05T04:41:52.541Z,13.58
2023-05-05T04:43:59.748Z,13.59
2023-05-05T04:46:05.208Z,13.65
2023-05-05T04:48:15.353Z,13.71
2023-05-05T04:50:20.597Z,13.68
2023-05-05T04:52:25.865Z,13.70
2023-05-05T04:54:30.763Z,13.69
2023-05-05T04:56:36.070Z,13.67
2023-05-05T04:58:41.036Z,13.70
2023-05-05T05:00:46.065Z,13.74
2023-05-05T05:02:51.002Z,13.82
2023-05-05T05:04:58.575Z,13.92
2023-05-05T05:07:04.316Z,13.92
2023-05-05T05:09:09.314Z,14.01
2023-05-05T05:11:14.300Z,14.12
2023-05-05T05:13:19.355Z,14.21
2023-05-05T05:15:24.298Z,14.24
2023-05-05T05:17:30.627Z,14.30
2023-05-05T05:19:36.628Z,14.39
2023-05-05T05:21:44.417Z,14.56
2023-05-05T05:23:49.287Z,14.65
2023-05-05T05:25:54.898Z,14.73
2023-05-05T05:28:09.604Z,14.76
2023-05-05T05:30:19.449Z,14.76
2023-05-05T05:32:24.547Z,14.71
2023-05-05T05:34:29.551Z,14.62
2023-05-05T05:36:35.290Z,14.57
2023-05-05T05:38:43.579Z,14.52
2023-05-05T05:40:48.426Z,14.48
2023-05-05T05:42:53.334Z,14.46
2023-05-05T05:44:58.882Z,14.38
2023-05-05T05:47:04.364Z,14.36
2023-05-05T05:49:09.365Z,14.47
2023-05-05T05:51:14.463Z,14.66
2023-05-05T05:53:19.941Z,14.85
2023-05-05T05:55:27.525Z,14.97
2023-05-05T05:57:32.729Z,14.94
2023-05-05T05:59:41.287Z,14.92
2023-05-05T06:01:46.466Z,14.93
2023-05-05T06:03:51.487Z,14.99
2023-05-05T06:05:56.361Z,15.00
2023-05-05T06:08:01.256Z,15.09
2023-05-05T06:10:25.760Z,15.19
2023-05-05T06:12:41.471Z,15.23
2023-05-05T06:14:46.710Z,15.21
2023-05-05T06:16:52.941Z,15.22
2023-05-05T06:19:00.345Z,15.23
2023-05-05T06:21:05.313Z,15.32
2023-05-05T06:23:13.180Z,15.30
2023-05-05T06:25:22.805Z,15.39
2023-05-05T06:27:28.758Z,15.38
2023-05-05T06:29:36.410Z,15.32
2023-05-05T06:31:41.336Z,15.33
2023-05-05T06:33:46.280Z,15.37
2023-05-05T06:35:51.482Z,15.45
2023-05-05T06:37:56.355Z,15.55
2023-05-05T06:40:01.423Z,15.66
2023-05-05T06:42:06.602Z,15.70
2023-05-05T06:44:11.593Z,15.77
2023-05-05T06:46:19.253Z,15.91
2023-05-05T06:48:24.682Z,15.98
2023-05-05T06:50:29.598Z,16.06
2023-05-05T06:52:36.986Z,16.14
2023-05-05T06:54:43.755Z,16.24
2023-05-05T06:56:48.648Z,16.33
2023-05-05T06:58:53.508Z,16.45
2023-05-05T07:00:58.410Z,16.51
2023-05-05T07:03:06.399Z,16.63
2023-05-05T07:05:11.984Z,16.71
2023-05-05T07:07:17.077Z,16.81
2023-05-05T07:09:22.016Z,16.82
2023-05-05T07:11:27.019Z,16.89
2023-05-05T07:13:31.954Z,16.94
2023-05-05T07:15:36.981Z,17.04
2023-05-05T07:17:41.898Z,17.11
2023-05-05T07:19:49.468Z,17.13
2023-05-05T07:21:55.100Z,17.23
2023-05-05T07:24:00.145Z,17.29
2023-05-05T07:26:05.075Z,17.39
2023-05-05T07:28:10.078Z,17.43
2023-05-05T07:30:18.387Z,17.51
2023-05-05T07:32:24.019Z,17.55
2023-05-05T07:34:28.683Z,17.62
2023-05-05T07:36:36.292Z,17.71
2023-05-05T07:38:41.194Z,17.78
2023-05-05T07:40:46.067Z,17.93
2023-05-05T07:42:51.162Z,18.02
2023-05-05T07:44:56.032Z,18.09
2023-05-05T07:47:03.955Z,18.18
2023-05-05T07:49:08.941Z,18.29
2023-05-05T07:51:13.938Z,18.41
2023-05-05T07:53:21.390Z,18.50
2023-05-05T07:55:26.262Z,18.62
2023-05-05T07:57:31.395Z,18.71
2023-05-05T07:59:36.261Z,18.64
2023-05-05T08:01:41.262Z,18.80
2023-05-05T08:03:46.064Z,18.82
2023-05-05T08:05:51.798Z,18.87
2023-05-05T08:07:56.925Z,19.00
2023-05-05T08:10:04.649Z,19.09
2023-05-05T08:12:10.235Z,19.20
2023-05-05T08:14:15.375Z,19.27
2023-05-05T08:16:20.118Z,19.31
2023-05-05T08:18:25.289Z,19.38
2023-05-05T08:20:31.280Z,19.46
2023-05-05T08:22:36.275Z,19.53
2023-05-05T08:24:41.028Z,19.55
2023-05-05T08:26:48.477Z,19.63
2023-05-05T08:28:55.443Z,19.66
2023-05-05T08:31:00.338Z,19.75
2023-05-05T08:33:05.356Z,19.81
2023-05-05T08:35:11.090Z,19.88
2023-05-05T08:37:19.112Z,20.01
2023-05-05T08:39:24.065Z,20.14
2023-05-05T08:41:29.139Z,20.13
2023-05-05T08:43:36.726Z,20.16
2023-05-05T08:45:43.839Z,20.19
2023-05-05T08:47:48.908Z,20.06
2023-05-05T08:49:56.449Z,20.09
2023-05-05T08:52:05.883Z,20.18
2023-05-05T08:54:15.415Z,20.28
2023-05-05T08:56:22.806Z,20.39
2023-05-05T08:58:29.027Z,20.55
2023-05-05T09:00:36.851Z,20.68
2023-05-05T09:02:43.486Z,20.65
2023-05-05T09:04:48.573Z,20.70
2023-05-05T09:06:53.587Z,20.73
2023-05-05T09:09:01.057Z,20.81
2023-05-05T09:11:06.730Z,20.75
2023-05-05T09:13:12.033Z,20.89
2023-05-05T09:15:17.566Z,20.81
2023-05-05T09:17:29.679Z,20.85
2023-05-05T09:19:34.639Z,21.01
2023-05-05T09:21:49.276Z,21.15
2023-05-05T09:24:11.069Z,21.31
2023-05-05T09:26:15.918Z,21.38
2023-05-05T09:28:21.313Z,21.51
2023-05-05T09:30:28.093Z,21.55
2023-05-05T09:32:46.449Z,21.68
2023-05-05T09:35:00.823Z,21.80
2023-05-05T09:37:06.885Z,21.81
2023-05-05T09:39:11.956Z,21.89
2023-05-05T09:41:16.584Z,21.90
2023-05-05T09:43:22.780Z,21.93
2023-05-05T09:45:29.429Z,22.00
2023-05-05T09:47:40.906Z,22.01
2023-05-05T09:49:45.868Z,22.02
2023-05-05T09:51:51.802Z,22.04
2023-05-05T09:53:56.992Z,22.10
2023-05-05T09:56:03.075Z,22.13
2023-05-05T09:58:21.469Z,22.10
2023-05-05T10:00:41.195Z,22.04
2023-05-05T10:02:49.001Z,22.08
2023-05-05T10:05:07.128Z,22.26
2023-05-05T10:07:25.823Z,22.42
2023-05-05T10:09:31.892Z,22.48
2023-05-05T10:11:37.657Z,22.48
2023-05-05T10:13:44.489Z,22.63
2023-05-05T10:15:51.741Z,22.58
2023-05-05T10:18:08.183Z,22.73
2023-05-05T10:20:16.057Z,22.77
2023-05-05T10:22:25.469Z,22.95
2023-05-05T10:24:40.572Z,23.01
2023-05-05T10:26:49.253Z,23.09
2023-05-05T10:28:57.663Z,23.20
2023-05-05T10:31:13.132Z,23.29
2023-05-05T10:33:39.474Z,23.46
2023-05-05T10:35:46.955Z,23.40
2023-05-05T10:37:53.034Z,23.55
2023-05-05T10:39:58.648Z,23.65
2023-05-05T10:42:04.937Z,23.36
2023-05-05T10:44:10.943Z,23.34
2023-05-05T10:46:16.312Z,23.36
2023-05-05T10:48:25.734Z,23.56
2023-05-05T10:50:41.438Z,23.53
2023-05-05T10:52:56.302Z,23.77
2023-05-05T10:55:10.781Z,23.87
2023-05-05T10:57:19.408Z,24.08
2023-05-05T10:59:42.672Z,24.31
2023-05-05T11:01:47.618Z,24.08
2023-05-05T11:03:52.386Z,24.22
2023-05-05T11:06:15.629Z,23.89
2023-05-05T11:08:29.744Z,23.80
2023-05-05T11:10:47.411Z,23.83
2023-05-05T11:13:23.826Z,23.67
2023-05-05T11:15:40.888Z,23.54
2023-05-05T11:17:49.940Z,23.76
2023-05-05T11:19:55.184Z,23.76
2023-05-05T11:22:05.874Z,23.98
2023-05-05T11:24:32.009Z,24.09
2023-05-05T11:26:52.965Z,24.10
2023-05-05T11:29:03.360Z,24.28
2023-05-05T11:31:26.727Z,24.39
2023-05-05T11:33:32.722Z,24.53
2023-05-05T11:35:58.864Z,24.67
2023-05-05T11:38:10.180Z,24.49
2023-05-05T11:40:24.478Z,24.41
2023-05-05T11:42:30.451Z,24.22
2023-05-05T11:44:37.012Z,24.21
2023-05-05T11:46:43.577Z,24.30
2023-05-05T11:48:48.865Z,24.39
2023-05-05T11:50:53.910Z,24.45
2023-05-05T11:52:58.958Z,24.34
2023-05-05T11:55:07.356Z,24.34
2023-05-05T11:57:12.308Z,24.32
2023-05-05T11:59:17.151Z,24.31
2023-05-05T12:01:22.075Z,24.34
2023-05-05T12:03:28.817Z,24.09
2023-05-05T12:05:36.691Z,24.09
2023-05-05T12:07:44.756Z,24.04
2023-05-05T12:09:52.124Z,24.02
2023-05-05T12:12:02.916Z,24.05
2023-05-05T12:14:12.287Z,24.00
2023-05-05T12:16:20.142Z,23.87
2023-05-05T12:18:25.060Z,23.75
2023-05-05T12:20:32.626Z,23.61
2023-05-05T12:22:37.642Z,23.62
2023-05-05T12:24:42.996Z,23.74
2023-05-05T12:26:47.885Z,23.81
2023-05-05T12:28:55.621Z,23.69
2023-05-05T12:31:00.800Z,23.71
2023-05-05T12:33:06.844Z,23.78
2023-05-05T12:35:13.380Z,23.75
2023-05-05T12:37:19.331Z,23.89
2023-05-05T12:39:24.386Z,23.94
2023-05-05T12:41:28.964Z,23.79
2023-05-05T12:43:34.984Z,23.90
2023-05-05T12:45:45.186Z,23.84
2023-05-05T12:47:50.168Z,23.77
2023-05-05T12:49:55.182Z,23.72
2023-05-05T12:52:00.663Z,23.72
2023-05-05T12:54:07.449Z,23.54
2023-05-05T12:56:33.570Z,23.42
2023-05-05T12:58:51.227Z,23.19
2023-05-05T13:01:13.595Z,23.22
2023-05-05T13:03:22.227Z,23.33
2023-05-05T13:05:34.546Z,23.44
2023-05-05T13:07:40.729Z,23.50
2023-05-05T13:09:46.191Z,23.53
2023-05-05T13:11:51.242Z,23.54
2023-05-05T13:13:56.620Z,23.41
2023-05-05T13:16:01.507Z,23.50
2023-05-05T13:18:08.873Z,23.64
2023-05-05T13:20:14.570Z,23.60
2023-05-05T13:22:20.071Z,23.63
2023-05-05T13:24:37.955Z,23.58
2023-05-05T13:26:47.597Z,23.67
2023-05-05T13:28:52.258Z,23.65
2023-05-05T13:30:58.854Z,23.51
2023-05-05T13:33:05.107Z,23.33
2023-05-05T13:35:15.529Z,23.12
2023-05-05T13:37:21.454Z,23.03
2023-05-05T13:39:26.360Z,22.92
2023-05-05T13:41:31.366Z,22.81
2023-05-05T13:43:36.053Z,22.72
2023-05-05T13:45:41.976Z,22.66
2023-05-05T13:47:47.131Z,22.57
2023-05-05T13:49:51.916Z,22.55
2023-05-05T13:51:59.675Z,22.51
2023-05-05T13:54:04.855Z,22.51
2023-05-05T13:56:11.113Z,22.56
2023-05-05T13:58:17.824Z,22.51
2023-05-05T14:00:23.404Z,22.51
2023-05-05T14:02:28.309Z,22.38
2023-05-05T14:04:33.298Z,22.30
2023-05-05T14:06:38.595Z,22.40
2023-05-05T14:08:46.475Z,22.38
2023-05-05T14:10:52.261Z,22.24
2023-05-05T14:12:57.400Z,22.22
2023-05-05T14:15:02.122Z,22.15
2023-05-05T14:17:07.119Z,22.20
2023-05-05T14:19:12.021Z,22.13
2023-05-05T14:21:16.955Z,22.23
2023-05-05T14:23:21.874Z,22.20
2023-05-05T14:25:29.224Z,22.11
2023-05-05T14:27:34.129Z,22.06
2023-05-05T14:29:39.008Z,21.99
2023-05-05T14:31:43.959Z,21.99
2023-05-05T14:33:48.922Z,21.97
2023-05-05T14:35:53.900Z,21.97
2023-05-05T14:37:58.813Z,21.95
2023-05-05T14:40:05.623Z,22.02
2023-05-05T14:42:13.438Z,22.12
2023-05-05T14:44:19.166Z,22.23
2023-05-05T14:46:24.243Z,22.31
2023-05-05T14:48:29.372Z,22.40
2023-05-05T14:50:34.052Z,22.39
2023-05-05T14:52:40.500Z,22.38
2023-05-05T14:54:45.433Z,22.42
2023-05-05T14:56:50.355Z,22.53
2023-05-05T14:58:57.840Z,22.65
2023-05-05T15:01:03.296Z,22.69
2023-05-05T15:03:08.337Z,22.83
2023-05-05T15:05:13.664Z,22.97
2023-05-05T15:07:18.586Z,23.08
2023-05-05T15:09:23.468Z,23.12
2023-05-05T15:11:28.457Z,23.14
2023-05-05T15:13:33.198Z,23.09
2023-05-05T15:15:41.357Z,23.17
2023-05-05T15:17:46.324Z,23.27
2023-05-05T15:19:51.338Z,23.35
2023-05-05T15:21:56.219Z,23.51
2023-05-05T15:24:01.093Z,23.40
2023-05-05T15:26:06.087Z,23.41
2023-05-05T15:28:11.156Z,23.37
2023-05-05T15:30:16.501Z,23.25
2023-05-05T15:32:24.480Z,23.23
2023-05-05T15:34:29.373Z,23.19
2023-05-05T15:36:34.249Z,23.20
2023-05-05T15:38:43.461Z,23.14
2023-05-05T15:40:50.164Z,23.08
2023-05-05T15:42:55.347Z,23.00
2023-05-05T15:45:02.108Z,22.99
2023-05-05T15:47:07.378Z,22.85
2023-05-05T15:49:15.310Z,22.78
2023-05-05T15:51:20.300Z,22.71
2023-05-05T15:53:26.917Z,22.67
2023-05-05T15:55:31.997Z,22.66
2023-05-05T15:57:39.702Z,22.50
2023-05-05T15:59:46.768Z,22.40
2023-05-05T16:01:51.639Z,22.23
2023-05-05T16:03:58.042Z,22.08
2023-05-05T16:06:05.854Z,21.94
2023-05-05T16:08:11.101Z,21.88
2023-05-05T16:10:17.734Z,21.87
2023-05-05T16:12:23.370Z,21.86
2023-05-05T16:14:28.215Z,21.80
2023-05-05T16:16:33.225Z,21.75
2023-05-05T16:18:39.472Z,21.75
2023-05-05T16:20:44.499Z,21.77
2023-05-05T16:22:51.738Z,21.72
2023-05-05T16:24:56.614Z,21.66
2023-05-05T16:27:01.520Z,21.54
2023-05-05T16:29:06.379Z,21.44
2023-05-05T16:31:11.985Z,21.50
2023-05-05T16:33:26.554Z,21.52
2023-05-05T16:35:40.563Z,21.56
2023-05-05T16:37:45.924Z,21.64
2023-05-05T16:39:53.398Z,21.70
2023-05-05T16:41:58.470Z,21.72
2023-05-05T16:44:03.384Z,21.73
2023-05-05T16:46:09.374Z,21.78
2023-05-05T16:48:14.939Z,21.81
2023-05-05T16:50:20.221Z,21.79
2023-05-05T16:52:25.191Z,21.68
2023-05-05T16:54:29.897Z,21.45
2023-05-05T16:56:37.426Z,21.34
2023-05-05T16:58:44.738Z,21.31
2023-05-05T17:00:49.616Z,21.27
2023-05-05T17:02:54.528Z,21.21
2023-05-05T17:04:59.437Z,21.23
2023-05-05T17:07:04.230Z,21.16
2023-05-05T17:09:09.125Z,21.21
2023-05-05T17:11:14.228Z,21.25
2023-05-05T17:13:23.209Z,21.23
2023-05-05T17:15:28.169Z,21.26
2023-05-05T17:17:33.051Z,21.30
2023-05-05T17:19:38.014Z,21.31
2023-05-05T17:21:43.084Z,21.15
2023-05-05T17:23:47.957Z,21.12
2023-05-05T17:25:52.960Z,21.05
2023-05-05T17:27:58.113Z,21.03
2023-05-05T17:30:05.664Z,21.08
2023-05-05T17:32:10.878Z,21.08
2023-05-05T17:34:15.895Z,21.04
2023-05-05T17:36:20.612Z,20.97
2023-05-05T17:38:25.479Z,20.91
2023-05-05T17:40:30.571Z,20.89
2023-05-05T17:42:35.774Z,20.79
2023-05-05T17:44:40.655Z,20.81
2023-05-05T17:46:48.144Z,20.85
2023-05-05T17:48:53.215Z,20.87
2023-05-05T17:50:57.902Z,20.84
2023-05-05T17:53:02.791Z,20.84
2023-05-05T17:55:08.841Z,20.87
2023-05-05T17:57:13.995Z,20.89
2023-05-05T17:59:18.945Z,20.85
2023-05-05T18:01:24.321Z,20.79
2023-05-05T18:03:32.094Z,20.76
2023-05-05T18:05:37.124Z,20.75
2023-05-05T18:07:42.028Z,20.74
2023-05-05T18:09:46.809Z,20.71
2023-05-05T18:11:54.112Z,20.71
2023-05-05T18:13:59.000Z,20.71
2023-05-05T18:16:03.858Z,20.66
2023-05-05T18:18:08.886Z,20.66
2023-05-05T18:20:17.988Z,20.59
2023-05-05T18:22:22.994Z,20.57
2023-05-05T18:24:28.324Z,20.45
2023-05-05T18:26:33.167Z,20.43
2023-05-05T18:28:39.745Z,20.40
2023-05-05T18:30:44.725Z,20.37
2023-05-05T18:32:49.878Z,20.37
2023-05-05T18:34:54.897Z,20.37
2023-05-05T18:37:02.539Z,20.37
2023-05-05T18:39:07.491Z,20.36
2023-05-05T18:41:12.322Z,20.33
2023-05-05T18:43:17.702Z,20.32
2023-05-05T18:45:22.842Z,20.30
2023-05-05T18:47:28.761Z,20.24
2023-05-05T18:49:33.825Z,20.18
2023-05-05T18:51:38.540Z,20.05
2023-05-05T18:53:46.534Z,20.04
2023-05-05T18:55:51.610Z,20.03
2023-05-05T18:57:56.709Z,19.99
2023-05-05T19:00:01.729Z,19.95
2023-05-05T19:02:06.752Z,19.84
2023-05-05T19:04:26.848Z,19.73
2023-05-05T19:06:35.970Z,19.60
2023-05-05T19:08:40.901Z,19.49
2023-05-05T19:10:48.670Z,19.44
2023-05-05T19:12:53.796Z,19.25
2023-05-05T19:14:58.708Z,19.10
2023-05-05T19:17:03.875Z,19.00
2023-05-05T19:19:10.991Z,18.67
2023-05-05T19:21:15.989Z,18.27
2023-05-05T19:23:20.920Z,17.97
2023-05-05T19:25:25.869Z,17.76
2023-05-05T19:27:34.060Z,17.49
2023-05-05T19:29:38.977Z,17.30
2023-05-05T19:31:43.917Z,17.11
2023-05-05T19:33:48.995Z,17.04
2023-05-05T19:35:53.919Z,17.04
2023-05-05T19:37:59.082Z,16.97
2023-05-05T19:40:04.201Z,16.87
2023-05-05T19:42:09.807Z,16.82
2023-05-05T19:44:17.443Z,16.83
2023-05-05T19:46:22.748Z,16.71
2023-05-05T19:48:27.793Z,16.58
2023-05-05T19:50:32.482Z,16.49
2023-05-05T19:52:38.501Z,16.42
2023-05-05T19:54:43.622Z,16.47
2023-05-05T19:56:48.259Z,16.47
2023-05-05T19:58:57.776Z,16.41
2023-05-05T20:01:05.291Z,16.46
2023-05-05T20:03:10.276Z,16.41
2023-05-05T20:05:17.473Z,16.33
2023-05-05T20:07:22.845Z,16.29
2023-05-05T20:09:27.699Z,16.23
2023-05-05T20:11:33.061Z,16.26
2023-05-05T20:13:38.452Z,16.24
2023-05-05T20:15:43.516Z,16.25
2023-05-05T20:17:51.326Z,16.25
2023-05-05T20:19:57.792Z,16.28
2023-05-05T20:22:02.984Z,16.18
2023-05-05T20:24:08.106Z,16.17
2023-05-05T20:26:13.699Z,16.29
2023-05-05T20:28:18.623Z,16.44
2023-05-05T20:30:23.503Z,16.50
2023-05-05T20:32:28.531Z,16.63
2023-05-05T20:34:35.990Z,16.71
2023-05-05T20:36:41.030Z,16.80
2023-05-05T20:38:46.084Z,16.89
2023-05-05T20:40:51.042Z,16.97
2023-05-05T20:42:55.880Z,17.02
2023-05-05T20:45:00.925Z,17.05
2023-05-05T20:47:06.053Z,16.88
2023-05-05T20:49:11.015Z,16.76
2023-05-05T20:51:18.575Z,16.84
2023-05-05T20:53:28.083Z,16.88
2023-05-05T20:55:32.935Z,16.90
2023-05-05T20:57:37.966Z,16.95
2023-05-05T20:59:42.883Z,17.01
2023-05-05T21:01:47.796Z,17.04
2023-05-05T21:03:53.136Z,17.09
2023-05-05T21:05:57.999Z,17.14
2023-05-05T21:08:05.549Z,17.20
2023-05-05T21:10:12.043Z,17.09
2023-05-05T21:12:17.103Z,17.02
2023-05-05T21:14:22.201Z,17.07
2023-05-05T21:16:27.277Z,17.09
2023-05-05T21:18:31.992Z,17.08
2023-05-05T21:20:36.920Z,17.12
2023-05-05T21:22:41.795Z,17.04
2023-05-05T21:24:49.364Z,16.92
2023-05-05T21:26:54.884Z,16.87
2023-05-05T21:28:59.756Z,16.91
2023-05-05T21:31:20.611Z,16.86
2023-05-05T21:33:27.513Z,16.84
2023-05-05T21:35:35.154Z,16.93
2023-05-05T21:37:40.703Z,17.02
2023-05-05T21:39:45.594Z,17.09
2023-05-05T21:41:53.247Z,17.13
2023-05-05T21:43:58.160Z,17.16
2023-05-05T21:46:03.691Z,17.20
2023-05-05T21:48:09.271Z,17.17
2023-05-05T21:50:14.857Z,17.20
2023-05-05T21:52:19.837Z,17.19
2023-05-05T21:54:24.752Z,17.18
2023-05-05T21:56:29.685Z,17.16
2023-05-05T21:58:37.612Z,17.13
2023-05-05T22:00:43.827Z,17.10
2023-05-05T22:02:48.820Z,17.08
2023-05-05T22:04:53.731Z,17.02
2023-05-05T22:06:58.681Z,16.94
2023-05-05T22:09:03.561Z,16.89
2023-05-05T22:11:08.621Z,16.83
2023-05-05T22:13:14.800Z,16.75
2023-05-05T22:15:25.400Z,16.74
2023-05-05T22:17:32.447Z,16.73
2023-05-05T22:19:37.370Z,16.73
2023-05-05T22:21:45.344Z,16.78
2023-05-05T22:23:50.267Z,16.77
2023-05-05T22:25:55.238Z,16.80
2023-05-05T22:28:00.195Z,16.84
2023-05-05T22:30:05.113Z,16.86
2023-05-05T22:32:12.756Z,16.91
2023-05-05T22:34:18.842Z,16.93
2023-05-05T22:36:23.683Z,16.95
2023-05-05T22:38:28.597Z,16.95
2023-05-05T22:40:33.602Z,16.97
2023-05-05T22:42:38.614Z,17.00
2023-05-05T22:44:43.344Z,16.92
2023-05-05T22:46:48.292Z,16.90
2023-05-05T22:48:55.757Z,16.91
2023-05-05T22:51:00.792Z,16.88
2023-05-05T22:53:05.680Z,16.89
2023-05-05T22:55:12.939Z,16.88
2023-05-05T22:57:17.916Z,16.83
2023-05-05T22:59:22.828Z,16.83
2023-05-05T23:01:28.206Z,16.84
2023-05-05T23:03:33.188Z,16.84
2023-05-05T23:05:40.690Z,16.86
2023-05-05T23:07:45.717Z,16.85
2023-05-05T23:09:50.908Z,16.81
2023-05-05T23:11:55.598Z,16.76
2023-05-05T23:14:00.513Z,16.75
2023-05-05T23:16:05.637Z,16.74
2023-05-05T23:18:10.520Z,16.74
2023-05-05T23:20:15.618Z,16.74
2023-05-05T23:22:22.907Z,16.71
2023-05-05T23:24:27.786Z,16.69
2023-05-05T23:26:32.680Z,16.69
2023-05-05T23:28:37.598Z,16.68
2023-05-05T23:30:45.194Z,16.70
2023-05-05T23:32:50.153Z,16.70
2023-05-05T23:34:54.881Z,16.68
2023-05-05T23:36:59.739Z,16.68
2023-05-05T23:39:07.540Z,16.71
2023-05-05T23:41:12.439Z,16.68
2023-05-05T23:43:17.264Z,16.66
2023-05-05T23:45:22.115Z,16.63
2023-05-05T23:47:27.153Z,16.62
2023-05-05T23:49:32.094Z,16.59
2023-05-05T23:51:37.200Z,16.51
2023-05-05T23:53:42.353Z,16.50
2023-05-05T23:55:49.596Z,16.43
2023-05-05T23:57:54.525Z,16.44
2023-05-05T23:59:59.394Z,16.26
